2WN5 weather

Murmuring Springs Airport
Necedah, Wisconsin, United States

Public forecast

Using degrees Fahrenheit for public forecast. Weather courtesy of forecast.io.

Closest aviation weather report (METAR) to Murmuring Springs Airport

Closest report is Volk Field, 10.9 nm (20.2 km) WSW. Retrieved 2019/10/14 23:56 UTC (36 minutes ago):

KVOK 142356Z AUTO 00000KT 10SM CLR 04/01 A2997 RMK AO2 SLP161 T00410010 10111 20041 55006

Closest aviation forecast (TAF) to Murmuring Springs Airport

Forecast is more than 12 hours old.

Closest forecast is Volk Field, 10.9 nm (20.2 km) WSW. Retrieved 2019/10/11 17:09 UTC (3 days ago):

TAF KVOK 111700Z 1117/1223 27010G15KT 9999 OVC020 QNH2982INS BECMG 1122/1123 23012KT 8000 -RA OVC010 620209 QNH2984INS TEMPO 1200/1204 -RASN 620109 BECMG 1204/1205 23009KT 9999 NSW OVC010 QNH2979INS BECMG 1214/1215 23015G25KT 9999 BKN025 QNH2970INS TX07/1117Z TNM01/1213Z LAST NO AMDS AFT 1120 NEXT 1509